Pineland, Texas
Current Conditions -  °F | °C
As of 9:35 PM on Friday 19 Dec 2014 (Local Time) from KJAS Reporting Station
Moderate Rain Moderate Rain  
Wind Chill: 45°   Ceiling: 600
Heat Index: 48°   Visibility: 4mi
Dew Point: 47°   Wind: 7mph
Humidity: 95%   Direction: 30°NNE
Pressure: 30.16"   Gusts: NA
Location:  31.25°N, 93.97°W
Report Text: KJAS 200335Z AUTO 03006KT 4SM RA OVC006 09/08 A3016 RMK AO2 T00900082
Loading
Personal Weather Stations






























Interactive Weather Map New forecast layout! Learn more

10-Day Weather Forecast

Advertisements
Track Severe Weather on mobile